Аэропорт: Астана. Астана

ICAO: UACC

METAR:
2019/05/26 14:00
UACC 261400Z 35003MPS 300V020 CAVOK 14/M07 Q1025 R04/0///70 NOSIG RMK QFE737/0983
METAR:
2019/05/26 12:18
TAF UACC 261100Z 2612/2712 34004MPS CAVOK TX20/2711Z TN04/2700Z 
      BECMG 2614/2615 VRB02MPS